sensor_id;sensor_type;location;lat;lon;timestamp;P1;durP1;ratioP1;P2;durP2;ratioP2
9689;SDS011;4884;42.614;23.340;2023-06-24T00:01:23;17.50;;;15.27;;
9689;SDS011;4884;42.614;23.340;2023-06-24T00:03:49;18.40;;;15.20;;
9689;SDS011;4884;42.614;23.340;2023-06-24T00:06:17;16.70;;;15.03;;
9689;SDS011;4884;42.614;23.340;2023-06-24T00:08:44;18.27;;;15.23;;
9689;SDS011;4884;42.614;23.340;2023-06-24T00:11:10;15.93;;;14.33;;
9689;SDS011;4884;42.614;23.340;2023-06-24T00:13:35;15.37;;;13.97;;
9689;SDS011;4884;42.614;23.340;2023-06-24T00:16:01;16.97;;;15.17;;
9689;SDS011;4884;42.614;23.340;2023-06-24T00:18:26;14.90;;;13.07;;
9689;SDS011;4884;42.614;23.340;2023-06-24T00:20:54;13.37;;;11.97;;
9689;SDS011;4884;42.614;23.340;2023-06-24T00:23:22;13.80;;;11.97;;
9689;SDS011;4884;42.614;23.340;2023-06-24T00:25:51;14.70;;;13.03;;
9689;SDS011;4884;42.614;23.340;2023-06-24T00:28:17;14.70;;;13.17;;
9689;SDS011;4884;42.614;23.340;2023-06-24T00:30:42;12.80;;;11.50;;
9689;SDS011;4884;42.614;23.340;2023-06-24T00:33:08;14.30;;;11.73;;
9689;SDS011;4884;42.614;23.340;2023-06-24T00:35:36;13.83;;;12.60;;
9689;SDS011;4884;42.614;23.340;2023-06-24T00:38:02;13.80;;;12.40;;
9689;SDS011;4884;42.614;23.340;2023-06-24T00:40:28;15.67;;;12.67;;
9689;SDS011;4884;42.614;23.340;2023-06-24T00:42:54;13.90;;;12.43;;
9689;SDS011;4884;42.614;23.340;2023-06-24T00:45:20;13.73;;;12.00;;
9689;SDS011;4884;42.614;23.340;2023-06-24T00:47:45;16.00;;;13.17;;
9689;SDS011;4884;42.614;23.340;2023-06-24T00:50:11;17.20;;;12.03;;
9689;SDS011;4884;42.614;23.340;2023-06-24T00:52:37;13.27;;;11.93;;
9689;SDS011;4884;42.614;23.340;2023-06-24T00:55:07;13.00;;;11.70;;
9689;SDS011;4884;42.614;23.340;2023-06-24T00:57:33;15.37;;;12.43;;
9689;SDS011;4884;42.614;23.340;2023-06-24T00:59:59;13.40;;;12.07;;
9689;SDS011;4884;42.614;23.340;2023-06-24T01:02:25;14.87;;;13.37;;
9689;SDS011;4884;42.614;23.340;2023-06-24T01:04:52;15.37;;;13.20;;
9689;SDS011;4884;42.614;23.340;2023-06-24T01:07:18;14.33;;;12.80;;
9689;SDS011;4884;42.614;23.340;2023-06-24T01:09:44;22.63;;;15.13;;
9689;SDS011;4884;42.614;23.340;2023-06-24T01:12:09;16.57;;;12.73;;
9689;SDS011;4884;42.614;23.340;2023-06-24T01:14:35;17.73;;;13.73;;
9689;SDS011;4884;42.614;23.340;2023-06-24T01:17:09;13.97;;;12.70;;
9689;SDS011;4884;42.614;23.340;2023-06-24T01:32:53;14.47;;;12.43;;
9689;SDS011;4884;42.614;23.340;2023-06-24T01:35:21;14.63;;;13.07;;
9689;SDS011;4884;42.614;23.340;2023-06-24T01:37:50;13.57;;;12.07;;
9689;SDS011;4884;42.614;23.340;2023-06-24T01:40:20;15.87;;;12.33;;
9689;SDS011;4884;42.614;23.340;2023-06-24T01:42:50;13.07;;;11.77;;
9689;SDS011;4884;42.614;23.340;2023-06-24T01:45:17;15.03;;;12.60;;
9689;SDS011;4884;42.614;23.340;2023-06-24T01:47:45;14.53;;;12.90;;
9689;SDS011;4884;42.614;23.340;2023-06-24T01:50:12;12.33;;;11.03;;
9689;SDS011;4884;42.614;23.340;2023-06-24T01:52:43;15.30;;;12.40;;
9689;SDS011;4884;42.614;23.340;2023-06-24T01:55:09;16.67;;;15.03;;
9689;SDS011;4884;42.614;23.340;2023-06-24T01:57:36;16.80;;;15.10;;
9689;SDS011;4884;42.614;23.340;2023-06-24T02:00:02;20.03;;;16.67;;
9689;SDS011;4884;42.614;23.340;2023-06-24T02:02:31;16.80;;;15.17;;
9689;SDS011;4884;42.614;23.340;2023-06-24T02:04:57;18.30;;;15.97;;
9689;SDS011;4884;42.614;23.340;2023-06-24T02:07:23;19.23;;;15.70;;
9689;SDS011;4884;42.614;23.340;2023-06-24T02:09:49;19.00;;;16.80;;
9689;SDS011;4884;42.614;23.340;2023-06-24T02:12:16;16.80;;;15.37;;
9689;SDS011;4884;42.614;23.340;2023-06-24T02:14:41;16.53;;;14.93;;
9689;SDS011;4884;42.614;23.340;2023-06-24T02:17:08;16.87;;;15.27;;
9689;SDS011;4884;42.614;23.340;2023-06-24T02:19:35;15.47;;;13.30;;
9689;SDS011;4884;42.614;23.340;2023-06-24T02:22:01;15.60;;;13.03;;
9689;SDS011;4884;42.614;23.340;2023-06-24T02:24:27;15.40;;;12.00;;
9689;SDS011;4884;42.614;23.340;2023-06-24T02:26:54;16.70;;;12.03;;
9689;SDS011;4884;42.614;23.340;2023-06-24T02:29:20;13.93;;;12.60;;
9689;SDS011;4884;42.614;23.340;2023-06-24T02:31:46;14.07;;;12.20;;
9689;SDS011;4884;42.614;23.340;2023-06-24T02:34:12;12.70;;;11.10;;
9689;SDS011;4884;42.614;23.340;2023-06-24T02:36:38;14.40;;;11.83;;
9689;SDS011;4884;42.614;23.340;2023-06-24T02:39:03;12.87;;;11.67;;
9689;SDS011;4884;42.614;23.340;2023-06-24T02:41:29;13.47;;;12.13;;
9689;SDS011;4884;42.614;23.340;2023-06-24T02:43:54;14.43;;;11.90;;
9689;SDS011;4884;42.614;23.340;2023-06-24T02:46:20;16.17;;;13.37;;
9689;SDS011;4884;42.614;23.340;2023-06-24T02:48:46;13.73;;;11.97;;
9689;SDS011;4884;42.614;23.340;2023-06-24T02:51:12;14.10;;;12.70;;
9689;SDS011;4884;42.614;23.340;2023-06-24T02:53:38;15.40;;;12.17;;
9689;SDS011;4884;42.614;23.340;2023-06-24T02:56:04;16.40;;;12.70;;
9689;SDS011;4884;42.614;23.340;2023-06-24T02:58:30;13.87;;;12.27;;
9689;SDS011;4884;42.614;23.340;2023-06-24T03:00:58;13.83;;;12.53;;
9689;SDS011;4884;42.614;23.340;2023-06-24T03:03:24;13.63;;;12.17;;
9689;SDS011;4884;42.614;23.340;2023-06-24T03:05:51;17.53;;;13.07;;
9689;SDS011;4884;42.614;23.340;2023-06-24T03:08:18;15.13;;;12.93;;
9689;SDS011;4884;42.614;23.340;2023-06-24T03:10:44;13.83;;;12.30;;
9689;SDS011;4884;42.614;23.340;2023-06-24T03:13:09;13.43;;;12.10;;
9689;SDS011;4884;42.614;23.340;2023-06-24T03:15:35;13.30;;;12.07;;
9689;SDS011;4884;42.614;23.340;2023-06-24T03:18:00;16.27;;;13.77;;
9689;SDS011;4884;42.614;23.340;2023-06-24T03:20:26;17.27;;;13.07;;
9689;SDS011;4884;42.614;23.340;2023-06-24T03:22:51;16.00;;;13.43;;
9689;SDS011;4884;42.614;23.340;2023-06-24T03:25:17;15.63;;;14.03;;
9689;SDS011;4884;42.614;23.340;2023-06-24T03:27:42;14.97;;;13.57;;
9689;SDS011;4884;42.614;23.340;2023-06-24T03:30:08;14.73;;;13.33;;
9689;SDS011;4884;42.614;23.340;2023-06-24T03:32:35;13.60;;;12.20;;
9689;SDS011;4884;42.614;23.340;2023-06-24T03:35:01;15.93;;;13.27;;
9689;SDS011;4884;42.614;23.340;2023-06-24T03:37:28;14.90;;;13.37;;
9689;SDS011;4884;42.614;23.340;2023-06-24T03:39:53;15.10;;;13.60;;
9689;SDS011;4884;42.614;23.340;2023-06-24T03:42:18;15.90;;;14.07;;
9689;SDS011;4884;42.614;23.340;2023-06-24T03:44:44;16.37;;;14.73;;
9689;SDS011;4884;42.614;23.340;2023-06-24T03:47:09;14.90;;;13.40;;
9689;SDS011;4884;42.614;23.340;2023-06-24T03:49:35;15.20;;;13.60;;
9689;SDS011;4884;42.614;23.340;2023-06-24T03:52:00;16.43;;;14.33;;
9689;SDS011;4884;42.614;23.340;2023-06-24T03:54:26;15.10;;;13.53;;
9689;SDS011;4884;42.614;23.340;2023-06-24T03:56:51;17.13;;;14.43;;
9689;SDS011;4884;42.614;23.340;2023-06-24T03:59:16;14.93;;;13.53;;
9689;SDS011;4884;42.614;23.340;2023-06-24T04:01:42;15.70;;;14.10;;
9689;SDS011;4884;42.614;23.340;2023-06-24T04:04:07;15.37;;;13.80;;
9689;SDS011;4884;42.614;23.340;2023-06-24T04:06:32;17.10;;;15.37;;
9689;SDS011;4884;42.614;23.340;2023-06-24T04:08:58;17.77;;;14.67;;
9689;SDS011;4884;42.614;23.340;2023-06-24T04:11:23;16.53;;;14.93;;
9689;SDS011;4884;42.614;23.340;2023-06-24T04:13:49;16.37;;;14.67;;
9689;SDS011;4884;42.614;23.340;2023-06-24T04:16:15;16.30;;;14.60;;
9689;SDS011;4884;42.614;23.340;2023-06-24T04:18:40;15.80;;;14.30;;
9689;SDS011;4884;42.614;23.340;2023-06-24T04:21:06;16.93;;;15.30;;
9689;SDS011;4884;42.614;23.340;2023-06-24T04:23:31;15.47;;;14.03;;
9689;SDS011;4884;42.614;23.340;2023-06-24T04:25:57;15.67;;;14.13;;
9689;SDS011;4884;42.614;23.340;2023-06-24T04:28:23;16.00;;;14.47;;
9689;SDS011;4884;42.614;23.340;2023-06-24T04:30:48;20.23;;;18.07;;
9689;SDS011;4884;42.614;23.340;2023-06-24T04:33:14;18.97;;;15.57;;
9689;SDS011;4884;42.614;23.340;2023-06-24T04:35:39;16.87;;;14.87;;
9689;SDS011;4884;42.614;23.340;2023-06-24T04:38:04;16.03;;;14.33;;
9689;SDS011;4884;42.614;23.340;2023-06-24T04:40:30;16.07;;;14.13;;
9689;SDS011;4884;42.614;23.340;2023-06-24T04:42:55;16.97;;;15.10;;
9689;SDS011;4884;42.614;23.340;2023-06-24T04:45:21;16.47;;;14.97;;
9689;SDS011;4884;42.614;23.340;2023-06-24T04:47:46;17.20;;;15.53;;
9689;SDS011;4884;42.614;23.340;2023-06-24T04:50:11;15.90;;;14.13;;
9689;SDS011;4884;42.614;23.340;2023-06-24T04:52:38;17.30;;;15.70;;
9689;SDS011;4884;42.614;23.340;2023-06-24T04:55:04;15.83;;;14.40;;
9689;SDS011;4884;42.614;23.340;2023-06-24T04:57:30;16.67;;;14.97;;
9689;SDS011;4884;42.614;23.340;2023-06-24T04:59:57;16.27;;;14.70;;
9689;SDS011;4884;42.614;23.340;2023-06-24T05:02:23;16.23;;;14.73;;
9689;SDS011;4884;42.614;23.340;2023-06-24T05:04:48;16.67;;;14.97;;
9689;SDS011;4884;42.614;23.340;2023-06-24T05:07:14;16.97;;;15.37;;
9689;SDS011;4884;42.614;23.340;2023-06-24T05:09:40;17.70;;;15.93;;
9689;SDS011;4884;42.614;23.340;2023-06-24T05:12:05;17.63;;;15.27;;
9689;SDS011;4884;42.614;23.340;2023-06-24T05:14:34;16.70;;;15.10;;
9689;SDS011;4884;42.614;23.340;2023-06-24T05:16:59;17.80;;;16.13;;
9689;SDS011;4884;42.614;23.340;2023-06-24T05:19:25;16.33;;;14.90;;
9689;SDS011;4884;42.614;23.340;2023-06-24T05:21:51;16.73;;;15.23;;
9689;SDS011;4884;42.614;23.340;2023-06-24T05:24:16;17.10;;;15.40;;
9689;SDS011;4884;42.614;23.340;2023-06-24T05:26:41;16.77;;;14.97;;
9689;SDS011;4884;42.614;23.340;2023-06-24T05:29:07;18.13;;;15.10;;
9689;SDS011;4884;42.614;23.340;2023-06-24T05:31:32;17.90;;;16.27;;
9689;SDS011;4884;42.614;23.340;2023-06-24T05:33:57;16.30;;;14.67;;
9689;SDS011;4884;42.614;23.340;2023-06-24T05:36:23;17.03;;;15.47;;
9689;SDS011;4884;42.614;23.340;2023-06-24T05:38:48;17.80;;;16.03;;
9689;SDS011;4884;42.614;23.340;2023-06-24T05:41:14;16.93;;;15.33;;
9689;SDS011;4884;42.614;23.340;2023-06-24T05:43:39;17.73;;;16.03;;
9689;SDS011;4884;42.614;23.340;2023-06-24T05:46:07;18.10;;;16.17;;
9689;SDS011;4884;42.614;23.340;2023-06-24T05:48:32;16.23;;;14.57;;
9689;SDS011;4884;42.614;23.340;2023-06-24T05:50:58;15.93;;;14.37;;
9689;SDS011;4884;42.614;23.340;2023-06-24T05:53:23;15.70;;;14.20;;
9689;SDS011;4884;42.614;23.340;2023-06-24T05:55:49;17.33;;;14.80;;
9689;SDS011;4884;42.614;23.340;2023-06-24T05:58:15;15.67;;;14.23;;
9689;SDS011;4884;42.614;23.340;2023-06-24T06:00:40;15.93;;;14.37;;
9689;SDS011;4884;42.614;23.340;2023-06-24T06:03:05;16.50;;;14.87;;
9689;SDS011;4884;42.614;23.340;2023-06-24T06:05:31;17.40;;;15.73;;
9689;SDS011;4884;42.614;23.340;2023-06-24T06:07:56;17.27;;;15.60;;
9689;SDS011;4884;42.614;23.340;2023-06-24T06:10:22;16.60;;;15.13;;
9689;SDS011;4884;42.614;23.340;2023-06-24T06:12:47;19.87;;;16.10;;
9689;SDS011;4884;42.614;23.340;2023-06-24T06:15:12;16.27;;;14.73;;
9689;SDS011;4884;42.614;23.340;2023-06-24T06:17:38;16.70;;;15.30;;
9689;SDS011;4884;42.614;23.340;2023-06-24T06:20:04;17.10;;;15.50;;
9689;SDS011;4884;42.614;23.340;2023-06-24T06:22:29;17.30;;;15.55;;
9689;SDS011;4884;42.614;23.340;2023-06-24T06:24:57;16.95;;;15.30;;
9689;SDS011;4884;42.614;23.340;2023-06-24T06:27:22;16.97;;;15.27;;
9689;SDS011;4884;42.614;23.340;2023-06-24T06:29:47;17.15;;;15.48;;
9689;SDS011;4884;42.614;23.340;2023-06-24T06:32:13;17.80;;;16.25;;
9689;SDS011;4884;42.614;23.340;2023-06-24T06:34:38;18.23;;;16.52;;
9689;SDS011;4884;42.614;23.340;2023-06-24T06:37:04;16.95;;;15.32;;
9689;SDS011;4884;42.614;23.340;2023-06-24T06:39:29;17.23;;;15.73;;
9689;SDS011;4884;42.614;23.340;2023-06-24T06:41:55;17.30;;;15.63;;
9689;SDS011;4884;42.614;23.340;2023-06-24T06:44:20;18.05;;;16.15;;
9689;SDS011;4884;42.614;23.340;2023-06-24T06:46:46;18.35;;;16.60;;
9689;SDS011;4884;42.614;23.340;2023-06-24T06:49:11;17.48;;;15.75;;
9689;SDS011;4884;42.614;23.340;2023-06-24T06:51:37;17.15;;;15.43;;
9689;SDS011;4884;42.614;23.340;2023-06-24T06:54:02;17.25;;;15.52;;
9689;SDS011;4884;42.614;23.340;2023-06-24T06:56:28;17.85;;;15.68;;
9689;SDS011;4884;42.614;23.340;2023-06-24T06:58:53;16.42;;;14.65;;
9689;SDS011;4884;42.614;23.340;2023-06-24T07:01:19;15.60;;;14.20;;
9689;SDS011;4884;42.614;23.340;2023-06-24T07:03:44;15.75;;;14.40;;
9689;SDS011;4884;42.614;23.340;2023-06-24T07:06:10;15.30;;;13.80;;
9689;SDS011;4884;42.614;23.340;2023-06-24T07:08:35;16.40;;;14.90;;
9689;SDS011;4884;42.614;23.340;2023-06-24T07:11:01;16.80;;;15.30;;
9689;SDS011;4884;42.614;23.340;2023-06-24T07:13:27;15.05;;;13.77;;
9689;SDS011;4884;42.614;23.340;2023-06-24T07:15:52;16.05;;;14.48;;
9689;SDS011;4884;42.614;23.340;2023-06-24T07:18:18;17.42;;;15.80;;
9689;SDS011;4884;42.614;23.340;2023-06-24T07:20:43;17.98;;;16.00;;
9689;SDS011;4884;42.614;23.340;2023-06-24T07:23:09;16.08;;;14.68;;
9689;SDS011;4884;42.614;23.340;2023-06-24T07:25:35;18.75;;;17.00;;
9689;SDS011;4884;42.614;23.340;2023-06-24T07:28:00;20.05;;;15.88;;
9689;SDS011;4884;42.614;23.340;2023-06-24T07:30:25;18.10;;;16.38;;
9689;SDS011;4884;42.614;23.340;2023-06-24T07:32:51;18.60;;;16.58;;
9689;SDS011;4884;42.614;23.340;2023-06-24T07:35:16;17.70;;;16.10;;
9689;SDS011;4884;42.614;23.340;2023-06-24T07:37:43;18.90;;;17.13;;
9689;SDS011;4884;42.614;23.340;2023-06-24T07:40:09;18.63;;;16.05;;
9689;SDS011;4884;42.614;23.340;2023-06-24T07:42:35;18.55;;;16.95;;
9689;SDS011;4884;42.614;23.340;2023-06-24T07:45:00;17.33;;;15.93;;
9689;SDS011;4884;42.614;23.340;2023-06-24T07:47:26;17.42;;;15.75;;
9689;SDS011;4884;42.614;23.340;2023-06-24T07:49:51;18.75;;;16.52;;
9689;SDS011;4884;42.614;23.340;2023-06-24T07:52:17;18.55;;;16.90;;
9689;SDS011;4884;42.614;23.340;2023-06-24T07:54:42;20.17;;;18.42;;
9689;SDS011;4884;42.614;23.340;2023-06-24T07:57:08;16.65;;;15.25;;
9689;SDS011;4884;42.614;23.340;2023-06-24T07:59:33;17.40;;;15.85;;
9689;SDS011;4884;42.614;23.340;2023-06-24T08:01:58;17.90;;;16.08;;
9689;SDS011;4884;42.614;23.340;2023-06-24T08:04:24;17.23;;;15.75;;
9689;SDS011;4884;42.614;23.340;2023-06-24T08:06:49;16.58;;;15.07;;
9689;SDS011;4884;42.614;23.340;2023-06-24T08:09:15;17.88;;;16.17;;
9689;SDS011;4884;42.614;23.340;2023-06-24T08:11:41;16.98;;;15.38;;
9689;SDS011;4884;42.614;23.340;2023-06-24T08:14:07;16.85;;;15.25;;
9689;SDS011;4884;42.614;23.340;2023-06-24T08:16:32;16.70;;;15.10;;
9689;SDS011;4884;42.614;23.340;2023-06-24T08:18:57;16.95;;;15.18;;
9689;SDS011;4884;42.614;23.340;2023-06-24T08:21:23;17.25;;;15.80;;
9689;SDS011;4884;42.614;23.340;2023-06-24T08:23:48;16.38;;;14.95;;
9689;SDS011;4884;42.614;23.340;2023-06-24T08:26:15;15.15;;;13.95;;
9689;SDS011;4884;42.614;23.340;2023-06-24T08:28:40;14.82;;;13.50;;
9689;SDS011;4884;42.614;23.340;2023-06-24T08:31:06;15.93;;;14.65;;
9689;SDS011;4884;42.614;23.340;2023-06-24T08:33:31;15.57;;;14.25;;
9689;SDS011;4884;42.614;23.340;2023-06-24T08:35:56;14.90;;;13.63;;
9689;SDS011;4884;42.614;23.340;2023-06-24T08:38:22;17.48;;;15.65;;
9689;SDS011;4884;42.614;23.340;2023-06-24T08:40:47;15.95;;;14.50;;
9689;SDS011;4884;42.614;23.340;2023-06-24T08:43:14;15.52;;;14.05;;
9689;SDS011;4884;42.614;23.340;2023-06-24T08:45:40;15.25;;;13.85;;
9689;SDS011;4884;42.614;23.340;2023-06-24T08:48:05;15.27;;;13.93;;
9689;SDS011;4884;42.614;23.340;2023-06-24T08:50:33;15.68;;;14.38;;
9689;SDS011;4884;42.614;23.340;2023-06-24T08:53:00;15.90;;;14.40;;
9689;SDS011;4884;42.614;23.340;2023-06-24T08:55:28;15.48;;;14.25;;
9689;SDS011;4884;42.614;23.340;2023-06-24T08:57:56;14.18;;;13.07;;
9689;SDS011;4884;42.614;23.340;2023-06-24T09:00:22;15.35;;;14.15;;
9689;SDS011;4884;42.614;23.340;2023-06-24T09:02:47;14.45;;;13.35;;
9689;SDS011;4884;42.614;23.340;2023-06-24T09:05:13;15.75;;;14.30;;
9689;SDS011;4884;42.614;23.340;2023-06-24T09:07:38;15.63;;;14.32;;
9689;SDS011;4884;42.614;23.340;2023-06-24T09:10:04;15.45;;;14.15;;
9689;SDS011;4884;42.614;23.340;2023-06-24T09:12:31;16.08;;;14.50;;
9689;SDS011;4884;42.614;23.340;2023-06-24T09:14:57;15.35;;;13.93;;
9689;SDS011;4884;42.614;23.340;2023-06-24T09:17:23;15.23;;;14.00;;
9689;SDS011;4884;42.614;23.340;2023-06-24T09:19:49;15.07;;;13.52;;
9689;SDS011;4884;42.614;23.340;2023-06-24T09:22:15;14.85;;;13.65;;
9689;SDS011;4884;42.614;23.340;2023-06-24T09:24:44;14.43;;;13.07;;
9689;SDS011;4884;42.614;23.340;2023-06-24T09:27:11;14.95;;;13.55;;
9689;SDS011;4884;42.614;23.340;2023-06-24T09:29:40;15.82;;;14.52;;
9689;SDS011;4884;42.614;23.340;2023-06-24T09:32:06;14.98;;;13.68;;
9689;SDS011;4884;42.614;23.340;2023-06-24T09:34:32;15.02;;;13.93;;
9689;SDS011;4884;42.614;23.340;2023-06-24T09:36:58;14.07;;;12.85;;
9689;SDS011;4884;42.614;23.340;2023-06-24T09:39:24;13.93;;;12.68;;
9689;SDS011;4884;42.614;23.340;2023-06-24T09:44:22;13.80;;;12.55;;
9689;SDS011;4884;42.614;23.340;2023-06-24T09:46:48;13.93;;;12.55;;
9689;SDS011;4884;42.614;23.340;2023-06-24T09:49:13;14.45;;;12.75;;
9689;SDS011;4884;42.614;23.340;2023-06-24T09:51:43;13.10;;;11.93;;
9689;SDS011;4884;42.614;23.340;2023-06-24T09:54:10;12.95;;;11.95;;
9689;SDS011;4884;42.614;23.340;2023-06-24T09:56:36;13.40;;;12.40;;
9689;SDS011;4884;42.614;23.340;2023-06-24T09:59:06;13.48;;;12.30;;
9689;SDS011;4884;42.614;23.340;2023-06-24T10:01:32;13.05;;;11.73;;
9689;SDS011;4884;42.614;23.340;2023-06-24T10:04:01;12.43;;;11.48;;
9689;SDS011;4884;42.614;23.340;2023-06-24T10:06:27;12.20;;;11.18;;
9689;SDS011;4884;42.614;23.340;2023-06-24T10:08:53;11.43;;;10.38;;
9689;SDS011;4884;42.614;23.340;2023-06-24T10:11:19;12.15;;;11.15;;
9689;SDS011;4884;42.614;23.340;2023-06-24T10:13:44;11.48;;;10.40;;
9689;SDS011;4884;42.614;23.340;2023-06-24T10:16:09;12.13;;;11.23;;
9689;SDS011;4884;42.614;23.340;2023-06-24T10:18:36;11.23;;;10.25;;
9689;SDS011;4884;42.614;23.340;2023-06-24T10:21:03;11.57;;;10.57;;
9689;SDS011;4884;42.614;23.340;2023-06-24T10:26:32;12.18;;;11.07;;
9689;SDS011;4884;42.614;23.340;2023-06-24T10:47:38;11.80;;;10.10;;
9689;SDS011;4884;42.614;23.340;2023-06-24T10:50:07;10.77;;;9.80;;
9689;SDS011;4884;42.614;23.340;2023-06-24T10:52:38;11.43;;;9.85;;
9689;SDS011;4884;42.614;23.340;2023-06-24T10:55:04;11.10;;;10.05;;
9689;SDS011;4884;42.614;23.340;2023-06-24T10:57:30;11.32;;;10.38;;
9689;SDS011;4884;42.614;23.340;2023-06-24T10:59:56;10.45;;;9.45;;
9689;SDS011;4884;42.614;23.340;2023-06-24T11:02:23;11.13;;;10.25;;
9689;SDS011;4884;42.614;23.340;2023-06-24T11:04:50;10.85;;;9.75;;
9689;SDS011;4884;42.614;23.340;2023-06-24T11:07:19;11.20;;;10.13;;
9689;SDS011;4884;42.614;23.340;2023-06-24T11:12:40;10.32;;;9.52;;
9689;SDS011;4884;42.614;23.340;2023-06-24T11:15:07;10.82;;;9.80;;
9689;SDS011;4884;42.614;23.340;2023-06-24T11:17:33;10.02;;;9.30;;
9689;SDS011;4884;42.614;23.340;2023-06-24T11:19:59;11.77;;;9.70;;
9689;SDS011;4884;42.614;23.340;2023-06-24T11:22:25;10.35;;;9.38;;
9689;SDS011;4884;42.614;23.340;2023-06-24T11:24:51;11.88;;;9.85;;
9689;SDS011;4884;42.614;23.340;2023-06-24T11:27:24;10.77;;;9.82;;
9689;SDS011;4884;42.614;23.340;2023-06-24T11:29:51;9.70;;;8.80;;
9689;SDS011;4884;42.614;23.340;2023-06-24T11:32:17;9.75;;;8.88;;
9689;SDS011;4884;42.614;23.340;2023-06-24T11:34:42;9.65;;;9.00;;
9689;SDS011;4884;42.614;23.340;2023-06-24T11:37:08;10.30;;;9.40;;
9689;SDS011;4884;42.614;23.340;2023-06-24T11:39:35;11.43;;;9.40;;
9689;SDS011;4884;42.614;23.340;2023-06-24T11:42:00;10.05;;;9.25;;
9689;SDS011;4884;42.614;23.340;2023-06-24T11:44:26;10.68;;;9.68;;
9689;SDS011;4884;42.614;23.340;2023-06-24T11:46:51;10.10;;;9.30;;
9689;SDS011;4884;42.614;23.340;2023-06-24T11:49:17;10.30;;;9.40;;
9689;SDS011;4884;42.614;23.340;2023-06-24T11:51:49;10.30;;;9.50;;
9689;SDS011;4884;42.614;23.340;2023-06-24T11:54:16;10.95;;;9.90;;
9689;SDS011;4884;42.614;23.340;2023-06-24T11:56:43;11.18;;;9.82;;
9689;SDS011;4884;42.614;23.340;2023-06-24T11:59:21;11.40;;;10.38;;
9689;SDS011;4884;42.614;23.340;2023-06-24T12:01:52;11.73;;;10.63;;
9689;SDS011;4884;42.614;23.340;2023-06-24T12:04:19;11.00;;;10.10;;
9689;SDS011;4884;42.614;23.340;2023-06-24T12:06:44;10.85;;;10.00;;
9689;SDS011;4884;42.614;23.340;2023-06-24T12:09:10;11.82;;;10.73;;
9689;SDS011;4884;42.614;23.340;2023-06-24T12:11:36;10.40;;;9.50;;
9689;SDS011;4884;42.614;23.340;2023-06-24T12:14:02;12.00;;;10.88;;
9689;SDS011;4884;42.614;23.340;2023-06-24T12:16:28;12.98;;;10.85;;
9689;SDS011;4884;42.614;23.340;2023-06-24T12:18:54;10.57;;;9.57;;
9689;SDS011;4884;42.614;23.340;2023-06-24T12:21:20;11.15;;;10.05;;
9689;SDS011;4884;42.614;23.340;2023-06-24T12:23:45;11.55;;;10.48;;
9689;SDS011;4884;42.614;23.340;2023-06-24T12:26:11;11.77;;;10.60;;
9689;SDS011;4884;42.614;23.340;2023-06-24T12:28:36;10.98;;;10.02;;
9689;SDS011;4884;42.614;23.340;2023-06-24T12:31:02;13.23;;;12.05;;
9689;SDS011;4884;42.614;23.340;2023-06-24T12:33:28;12.65;;;11.38;;
9689;SDS011;4884;42.614;23.340;2023-06-24T12:35:53;11.38;;;10.27;;
9689;SDS011;4884;42.614;23.340;2023-06-24T12:38:19;12.10;;;10.98;;
9689;SDS011;4884;42.614;23.340;2023-06-24T12:40:44;11.98;;;10.77;;
9689;SDS011;4884;42.614;23.340;2023-06-24T12:43:10;10.35;;;9.27;;
9689;SDS011;4884;42.614;23.340;2023-06-24T12:45:36;10.73;;;9.63;;
9689;SDS011;4884;42.614;23.340;2023-06-24T12:48:05;10.57;;;9.50;;
9689;SDS011;4884;42.614;23.340;2023-06-24T12:50:30;12.35;;;11.13;;
9689;SDS011;4884;42.614;23.340;2023-06-24T12:52:57;11.00;;;9.90;;
9689;SDS011;4884;42.614;23.340;2023-06-24T12:55:23;10.00;;;9.20;;
9689;SDS011;4884;42.614;23.340;2023-06-24T12:57:48;11.10;;;9.90;;
9689;SDS011;4884;42.614;23.340;2023-06-24T13:00:14;11.10;;;10.00;;
9689;SDS011;4884;42.614;23.340;2023-06-24T13:02:39;10.57;;;9.60;;
9689;SDS011;4884;42.614;23.340;2023-06-24T13:05:05;10.82;;;9.90;;
9689;SDS011;4884;42.614;23.340;2023-06-24T13:07:30;11.20;;;10.20;;
9689;SDS011;4884;42.614;23.340;2023-06-24T13:09:56;12.00;;;10.95;;
9689;SDS011;4884;42.614;23.340;2023-06-24T13:12:21;11.00;;;9.90;;
9689;SDS011;4884;42.614;23.340;2023-06-24T13:14:47;10.77;;;9.77;;
9689;SDS011;4884;42.614;23.340;2023-06-24T13:17:13;10.77;;;9.85;;
9689;SDS011;4884;42.614;23.340;2023-06-24T13:19:38;11.00;;;10.10;;
9689;SDS011;4884;42.614;23.340;2023-06-24T13:22:03;11.10;;;10.10;;
9689;SDS011;4884;42.614;23.340;2023-06-24T13:24:29;11.48;;;10.23;;
9689;SDS011;4884;42.614;23.340;2023-06-24T13:26:54;12.70;;;9.95;;
9689;SDS011;4884;42.614;23.340;2023-06-24T13:29:20;11.25;;;10.35;;
9689;SDS011;4884;42.614;23.340;2023-06-24T13:31:46;11.43;;;10.32;;
9689;SDS011;4884;42.614;23.340;2023-06-24T13:34:11;12.65;;;11.48;;
9689;SDS011;4884;42.614;23.340;2023-06-24T13:36:37;15.48;;;14.02;;
9689;SDS011;4884;42.614;23.340;2023-06-24T13:39:07;13.60;;;12.40;;
9689;SDS011;4884;42.614;23.340;2023-06-24T13:41:34;18.23;;;12.77;;
9689;SDS011;4884;42.614;23.340;2023-06-24T13:44:00;16.10;;;12.38;;
9689;SDS011;4884;42.614;23.340;2023-06-24T13:46:27;15.38;;;11.77;;
9689;SDS011;4884;42.614;23.340;2023-06-24T13:48:53;12.13;;;9.93;;
9689;SDS011;4884;42.614;23.340;2023-06-24T13:51:19;12.05;;;10.05;;
9689;SDS011;4884;42.614;23.340;2023-06-24T13:53:45;12.43;;;10.10;;
9689;SDS011;4884;42.614;23.340;2023-06-24T13:56:12;21.10;;;10.85;;
9689;SDS011;4884;42.614;23.340;2023-06-24T13:58:38;19.27;;;11.45;;
9689;SDS011;4884;42.614;23.340;2023-06-24T14:01:03;15.23;;;9.77;;
9689;SDS011;4884;42.614;23.340;2023-06-24T14:03:28;15.50;;;9.57;;
9689;SDS011;4884;42.614;23.340;2023-06-24T14:05:54;12.77;;;9.05;;
9689;SDS011;4884;42.614;23.340;2023-06-24T14:08:19;13.30;;;9.88;;
9689;SDS011;4884;42.614;23.340;2023-06-24T14:10:44;15.35;;;9.00;;
9689;SDS011;4884;42.614;23.340;2023-06-24T14:13:10;15.60;;;10.85;;
9689;SDS011;4884;42.614;23.340;2023-06-24T14:15:35;13.98;;;9.43;;
9689;SDS011;4884;42.614;23.340;2023-06-24T14:18:00;17.90;;;12.18;;
9689;SDS011;4884;42.614;23.340;2023-06-24T14:20:26;15.23;;;10.73;;
9689;SDS011;4884;42.614;23.340;2023-06-24T14:22:51;13.67;;;11.53;;
9689;SDS011;4884;42.614;23.340;2023-06-24T14:25:17;20.77;;;13.33;;
9689;SDS011;4884;42.614;23.340;2023-06-24T14:27:42;17.33;;;14.60;;
9689;SDS011;4884;42.614;23.340;2023-06-24T14:30:08;19.50;;;14.13;;
9689;SDS011;4884;42.614;23.340;2023-06-24T14:32:33;18.30;;;13.10;;
9689;SDS011;4884;42.614;23.340;2023-06-24T14:34:59;19.10;;;12.53;;
9689;SDS011;4884;42.614;23.340;2023-06-24T14:37:24;18.30;;;12.50;;
9689;SDS011;4884;42.614;23.340;2023-06-24T14:39:50;15.80;;;13.80;;
9689;SDS011;4884;42.614;23.340;2023-06-24T14:42:15;19.80;;;13.63;;
9689;SDS011;4884;42.614;23.340;2023-06-24T14:44:40;21.63;;;13.33;;
9689;SDS011;4884;42.614;23.340;2023-06-24T14:47:06;15.23;;;12.53;;
9689;SDS011;4884;42.614;23.340;2023-06-24T14:49:31;20.07;;;14.67;;
9689;SDS011;4884;42.614;23.340;2023-06-24T14:51:57;14.13;;;12.67;;
9689;SDS011;4884;42.614;23.340;2023-06-24T14:54:22;15.97;;;13.87;;
9689;SDS011;4884;42.614;23.340;2023-06-24T14:56:47;15.37;;;13.87;;
9689;SDS011;4884;42.614;23.340;2023-06-24T14:59:13;15.30;;;13.87;;
9689;SDS011;4884;42.614;23.340;2023-06-24T15:01:38;14.17;;;12.60;;
9689;SDS011;4884;42.614;23.340;2023-06-24T15:04:04;13.77;;;11.70;;
9689;SDS011;4884;42.614;23.340;2023-06-24T15:06:29;14.07;;;12.67;;
9689;SDS011;4884;42.614;23.340;2023-06-24T15:08:55;17.93;;;11.87;;